KMYP

Monarch Pass Airport

Monarch Pass, Colorado, USA
METAR KMYP 200055Z AUTO 26036G44KT 10SM CLR M01/M09 A3015 RMK AO2
Observed Flight Rules
Jan-20 @ 00:55 UTC (21 minutes ago) Visual Flight Rules
Wind Visibility Clouds
260° at 36 knots
 Gusting to 44 knots
10 miles
  • Clear skies
Temperatures Readings
Current -1°C / 30°F
Dewpoint -9°C / 16°F
Humidity 55%
Altimeter 30.15" Hg
Pressure 1021 hPa
Elevation 3667
METAR KMYP 200055Z AUTO 26036G44KT 10SM CLR M01/M09 A3015 RMK AO2
Observed Flight Rules
Jan-20 @ 00:55 UTC
(21 minutes ago)
VFR
Wind Visibility
260° at 36 knots
 Gusting to 44 knots
10 miles
Clouds
  • Clear skies
Temperature Dewpoint
-1°C / 30°F -9°C / 16°F
Humidity Altimeter Pressure
55% 30.15" Hg 1021 hPa